sensor_id;sensor_type;location;lat;lon;timestamp;P1;durP1;ratioP1;P2;durP2;ratioP2
21554;SDS011;10938;44.794;-0.676;2023-02-19T00:01:29;23.08;;;13.65;;
21554;SDS011;10938;44.794;-0.676;2023-02-19T00:03:57;20.75;;;12.63;;
21554;SDS011;10938;44.794;-0.676;2023-02-19T00:06:24;20.17;;;12.10;;
21554;SDS011;10938;44.794;-0.676;2023-02-19T00:08:51;20.42;;;12.93;;
21554;SDS011;10938;44.794;-0.676;2023-02-19T00:11:18;20.48;;;12.15;;
21554;SDS011;10938;44.794;-0.676;2023-02-19T00:13:46;18.08;;;12.38;;
21554;SDS011;10938;44.794;-0.676;2023-02-19T00:16:26;19.20;;;11.82;;
21554;SDS011;10938;44.794;-0.676;2023-02-19T00:19:00;16.30;;;10.95;;
21554;SDS011;10938;44.794;-0.676;2023-02-19T00:21:27;20.55;;;13.00;;
21554;SDS011;10938;44.794;-0.676;2023-02-19T00:23:57;20.45;;;13.10;;
21554;SDS011;10938;44.794;-0.676;2023-02-19T00:26:25;20.80;;;12.40;;
21554;SDS011;10938;44.794;-0.676;2023-02-19T00:28:51;18.48;;;11.35;;
21554;SDS011;10938;44.794;-0.676;2023-02-19T00:31:18;16.27;;;11.65;;
21554;SDS011;10938;44.794;-0.676;2023-02-19T00:33:52;20.75;;;13.45;;
21554;SDS011;10938;44.794;-0.676;2023-02-19T00:36:20;19.98;;;12.82;;
21554;SDS011;10938;44.794;-0.676;2023-02-19T00:38:45;21.58;;;13.75;;
21554;SDS011;10938;44.794;-0.676;2023-02-19T00:41:12;22.38;;;12.73;;
21554;SDS011;10938;44.794;-0.676;2023-02-19T00:43:55;21.17;;;12.23;;
21554;SDS011;10938;44.794;-0.676;2023-02-19T00:48:51;17.30;;;12.98;;
21554;SDS011;10938;44.794;-0.676;2023-02-19T00:51:18;20.33;;;12.93;;
21554;SDS011;10938;44.794;-0.676;2023-02-19T00:53:44;18.90;;;11.38;;
21554;SDS011;10938;44.794;-0.676;2023-02-19T00:56:12;19.20;;;11.73;;
21554;SDS011;10938;44.794;-0.676;2023-02-19T00:58:38;15.77;;;10.73;;
21554;SDS011;10938;44.794;-0.676;2023-02-19T01:01:05;20.70;;;11.43;;
21554;SDS011;10938;44.794;-0.676;2023-02-19T01:03:31;18.30;;;11.95;;
21554;SDS011;10938;44.794;-0.676;2023-02-19T01:05:57;17.17;;;10.38;;
21554;SDS011;10938;44.794;-0.676;2023-02-19T01:08:23;18.20;;;11.23;;
21554;SDS011;10938;44.794;-0.676;2023-02-19T01:10:49;17.40;;;11.43;;
21554;SDS011;10938;44.794;-0.676;2023-02-19T01:13:15;16.10;;;10.68;;
21554;SDS011;10938;44.794;-0.676;2023-02-19T01:15:41;15.40;;;11.32;;
21554;SDS011;10938;44.794;-0.676;2023-02-19T01:18:06;16.27;;;10.63;;
21554;SDS011;10938;44.794;-0.676;2023-02-19T01:20:32;16.70;;;10.27;;
21554;SDS011;10938;44.794;-0.676;2023-02-19T01:22:58;20.65;;;12.65;;
21554;SDS011;10938;44.794;-0.676;2023-02-19T01:25:23;18.83;;;11.55;;
21554;SDS011;10938;44.794;-0.676;2023-02-19T01:27:49;17.00;;;10.60;;
21554;SDS011;10938;44.794;-0.676;2023-02-19T01:30:14;15.70;;;11.30;;
21554;SDS011;10938;44.794;-0.676;2023-02-19T01:32:40;16.60;;;11.10;;
21554;SDS011;10938;44.794;-0.676;2023-02-19T01:35:05;17.98;;;11.13;;
21554;SDS011;10938;44.794;-0.676;2023-02-19T01:37:34;17.73;;;11.27;;
21554;SDS011;10938;44.794;-0.676;2023-02-19T01:40:00;19.95;;;12.05;;
21554;SDS011;10938;44.794;-0.676;2023-02-19T01:42:25;16.85;;;12.45;;
21554;SDS011;10938;44.794;-0.676;2023-02-19T01:47:38;24.77;;;13.35;;
21554;SDS011;10938;44.794;-0.676;2023-02-19T01:50:03;21.67;;;12.85;;
21554;SDS011;10938;44.794;-0.676;2023-02-19T01:52:31;24.88;;;14.38;;
21554;SDS011;10938;44.794;-0.676;2023-02-19T01:55:00;19.90;;;11.45;;
21554;SDS011;10938;44.794;-0.676;2023-02-19T01:57:30;21.52;;;11.15;;
21554;SDS011;10938;44.794;-0.676;2023-02-19T02:00:04;19.23;;;12.48;;
21554;SDS011;10938;44.794;-0.676;2023-02-19T02:05:06;16.40;;;10.83;;
21554;SDS011;10938;44.794;-0.676;2023-02-19T02:07:44;22.13;;;14.15;;
21554;SDS011;10938;44.794;-0.676;2023-02-19T02:10:28;25.60;;;18.38;;
21554;SDS011;10938;44.794;-0.676;2023-02-19T02:12:55;29.13;;;17.65;;
21554;SDS011;10938;44.794;-0.676;2023-02-19T02:15:21;37.90;;;24.00;;
21554;SDS011;10938;44.794;-0.676;2023-02-19T02:20:32;68.72;;;30.25;;
21554;SDS011;10938;44.794;-0.676;2023-02-19T02:25:54;40.72;;;25.35;;
21554;SDS011;10938;44.794;-0.676;2023-02-19T02:28:43;43.20;;;25.63;;
21554;SDS011;10938;44.794;-0.676;2023-02-19T02:31:41;46.03;;;25.65;;
21554;SDS011;10938;44.794;-0.676;2023-02-19T02:34:12;66.00;;;25.50;;
21554;SDS011;10938;44.794;-0.676;2023-02-19T02:36:42;93.25;;;33.40;;
21554;SDS011;10938;44.794;-0.676;2023-02-19T02:39:12;80.75;;;30.42;;
21554;SDS011;10938;44.794;-0.676;2023-02-19T02:41:43;180.30;;;33.10;;
21554;SDS011;10938;44.794;-0.676;2023-02-19T02:44:13;103.07;;;29.58;;
21554;SDS011;10938;44.794;-0.676;2023-02-19T02:46:39;113.70;;;31.95;;
21554;SDS011;10938;44.794;-0.676;2023-02-19T02:49:11;69.72;;;24.83;;
21554;SDS011;10938;44.794;-0.676;2023-02-19T02:51:44;82.93;;;28.67;;
21554;SDS011;10938;44.794;-0.676;2023-02-19T02:54:15;95.13;;;26.00;;
21554;SDS011;10938;44.794;-0.676;2023-02-19T02:57:11;59.20;;;21.20;;
21554;SDS011;10938;44.794;-0.676;2023-02-19T02:59:39;181.02;;;26.48;;
21554;SDS011;10938;44.794;-0.676;2023-02-19T03:07:59;95.87;;;22.67;;
21554;SDS011;10938;44.794;-0.676;2023-02-19T03:10:35;128.50;;;21.00;;
21554;SDS011;10938;44.794;-0.676;2023-02-19T03:13:07;132.50;;;18.63;;
21554;SDS011;10938;44.794;-0.676;2023-02-19T03:15:57;90.82;;;15.27;;
21554;SDS011;10938;44.794;-0.676;2023-02-19T03:18:51;181.20;;;17.05;;
21554;SDS011;10938;44.794;-0.676;2023-02-19T03:21:37;192.20;;;16.55;;
21554;SDS011;10938;44.794;-0.676;2023-02-19T03:24:05;170.73;;;13.77;;
21554;SDS011;10938;44.794;-0.676;2023-02-19T03:26:50;87.13;;;12.87;;
21554;SDS011;10938;44.794;-0.676;2023-02-19T03:29:19;182.15;;;14.60;;
21554;SDS011;10938;44.794;-0.676;2023-02-19T03:31:48;116.47;;;12.63;;
21554;SDS011;10938;44.794;-0.676;2023-02-19T03:34:20;166.18;;;13.25;;
21554;SDS011;10938;44.794;-0.676;2023-02-19T03:36:57;187.32;;;13.63;;
21554;SDS011;10938;44.794;-0.676;2023-02-19T03:39:27;213.88;;;15.93;;
21554;SDS011;10938;44.794;-0.676;2023-02-19T03:47:16;97.60;;;11.60;;
21554;SDS011;10938;44.794;-0.676;2023-02-19T03:55:07;127.50;;;13.18;;
21554;SDS011;10938;44.794;-0.676;2023-02-19T03:57:48;98.03;;;12.32;;
21554;SDS011;10938;44.794;-0.676;2023-02-19T04:06:37;89.53;;;12.63;;
21554;SDS011;10938;44.794;-0.676;2023-02-19T04:09:05;93.25;;;12.57;;
21554;SDS011;10938;44.794;-0.676;2023-02-19T04:11:35;95.07;;;13.55;;
21554;SDS011;10938;44.794;-0.676;2023-02-19T04:14:26;154.77;;;14.27;;
21554;SDS011;10938;44.794;-0.676;2023-02-19T04:17:22;130.80;;;14.10;;
21554;SDS011;10938;44.794;-0.676;2023-02-19T04:19:51;106.60;;;14.73;;
21554;SDS011;10938;44.794;-0.676;2023-02-19T04:22:18;47.22;;;11.98;;
21554;SDS011;10938;44.794;-0.676;2023-02-19T04:24:47;101.40;;;14.15;;
21554;SDS011;10938;44.794;-0.676;2023-02-19T04:27:14;65.78;;;11.50;;
21554;SDS011;10938;44.794;-0.676;2023-02-19T04:29:40;29.70;;;11.13;;
21554;SDS011;10938;44.794;-0.676;2023-02-19T04:32:08;74.43;;;13.65;;
21554;SDS011;10938;44.794;-0.676;2023-02-19T04:34:34;72.45;;;13.48;;
21554;SDS011;10938;44.794;-0.676;2023-02-19T04:37:00;117.13;;;13.93;;
21554;SDS011;10938;44.794;-0.676;2023-02-19T04:39:25;85.68;;;14.75;;
21554;SDS011;10938;44.794;-0.676;2023-02-19T04:41:51;62.85;;;11.60;;
21554;SDS011;10938;44.794;-0.676;2023-02-19T04:44:16;75.50;;;13.80;;
21554;SDS011;10938;44.794;-0.676;2023-02-19T04:46:42;83.20;;;13.27;;
21554;SDS011;10938;44.794;-0.676;2023-02-19T04:49:07;70.22;;;14.48;;
21554;SDS011;10938;44.794;-0.676;2023-02-19T04:51:33;103.40;;;15.38;;
21554;SDS011;10938;44.794;-0.676;2023-02-19T04:53:58;88.72;;;14.07;;
21554;SDS011;10938;44.794;-0.676;2023-02-19T04:56:24;100.72;;;15.55;;
21554;SDS011;10938;44.794;-0.676;2023-02-19T04:58:49;93.65;;;15.80;;
21554;SDS011;10938;44.794;-0.676;2023-02-19T05:01:15;90.53;;;13.75;;
21554;SDS011;10938;44.794;-0.676;2023-02-19T05:03:40;88.63;;;13.52;;
21554;SDS011;10938;44.794;-0.676;2023-02-19T05:06:10;103.65;;;15.18;;
21554;SDS011;10938;44.794;-0.676;2023-02-19T05:08:36;76.70;;;12.98;;
21554;SDS011;10938;44.794;-0.676;2023-02-19T05:11:03;46.88;;;13.35;;
21554;SDS011;10938;44.794;-0.676;2023-02-19T05:13:29;111.60;;;13.98;;
21554;SDS011;10938;44.794;-0.676;2023-02-19T05:15:56;68.57;;;13.13;;
21554;SDS011;10938;44.794;-0.676;2023-02-19T05:18:23;61.88;;;12.60;;
21554;SDS011;10938;44.794;-0.676;2023-02-19T05:20:50;88.80;;;13.35;;
21554;SDS011;10938;44.794;-0.676;2023-02-19T05:23:15;51.47;;;12.52;;
21554;SDS011;10938;44.794;-0.676;2023-02-19T05:25:41;89.72;;;12.85;;
21554;SDS011;10938;44.794;-0.676;2023-02-19T05:28:06;36.60;;;11.45;;
21554;SDS011;10938;44.794;-0.676;2023-02-19T05:33:09;24.02;;;10.20;;
21554;SDS011;10938;44.794;-0.676;2023-02-19T05:35:39;36.10;;;9.60;;
21554;SDS011;10938;44.794;-0.676;2023-02-19T05:38:08;19.80;;;10.10;;
21554;SDS011;10938;44.794;-0.676;2023-02-19T05:40:34;33.13;;;10.32;;
21554;SDS011;10938;44.794;-0.676;2023-02-19T05:43:00;41.70;;;11.90;;
21554;SDS011;10938;44.794;-0.676;2023-02-19T05:45:25;35.88;;;11.15;;
21554;SDS011;10938;44.794;-0.676;2023-02-19T05:47:51;28.88;;;10.55;;
21554;SDS011;10938;44.794;-0.676;2023-02-19T05:50:16;17.83;;;8.80;;
21554;SDS011;10938;44.794;-0.676;2023-02-19T05:52:42;24.35;;;10.15;;
21554;SDS011;10938;44.794;-0.676;2023-02-19T05:55:08;39.63;;;10.65;;
21554;SDS011;10938;44.794;-0.676;2023-02-19T05:57:41;41.65;;;11.13;;
21554;SDS011;10938;44.794;-0.676;2023-02-19T06:00:08;24.95;;;10.60;;
21554;SDS011;10938;44.794;-0.676;2023-02-19T06:02:36;52.55;;;12.55;;
21554;SDS011;10938;44.794;-0.676;2023-02-19T06:05:05;27.90;;;13.15;;
21554;SDS011;10938;44.794;-0.676;2023-02-19T06:07:31;25.02;;;13.05;;
21554;SDS011;10938;44.794;-0.676;2023-02-19T06:09:57;42.63;;;14.25;;
21554;SDS011;10938;44.794;-0.676;2023-02-19T06:12:23;53.22;;;15.65;;
21554;SDS011;10938;44.794;-0.676;2023-02-19T06:14:48;54.75;;;15.43;;
21554;SDS011;10938;44.794;-0.676;2023-02-19T06:17:14;33.58;;;14.23;;
21554;SDS011;10938;44.794;-0.676;2023-02-19T06:19:39;43.95;;;15.20;;
21554;SDS011;10938;44.794;-0.676;2023-02-19T06:22:05;40.42;;;14.02;;
21554;SDS011;10938;44.794;-0.676;2023-02-19T06:24:31;44.40;;;15.23;;
21554;SDS011;10938;44.794;-0.676;2023-02-19T06:26:57;61.95;;;15.95;;
21554;SDS011;10938;44.794;-0.676;2023-02-19T06:29:22;53.40;;;15.02;;
21554;SDS011;10938;44.794;-0.676;2023-02-19T06:31:48;33.10;;;13.73;;
21554;SDS011;10938;44.794;-0.676;2023-02-19T06:34:13;18.80;;;11.60;;
21554;SDS011;10938;44.794;-0.676;2023-02-19T06:36:39;36.38;;;13.52;;
21554;SDS011;10938;44.794;-0.676;2023-02-19T06:39:04;36.05;;;13.77;;
21554;SDS011;10938;44.794;-0.676;2023-02-19T06:41:30;41.35;;;13.93;;
21554;SDS011;10938;44.794;-0.676;2023-02-19T06:43:57;41.05;;;14.35;;
21554;SDS011;10938;44.794;-0.676;2023-02-19T06:46:22;43.13;;;13.63;;
21554;SDS011;10938;44.794;-0.676;2023-02-19T06:48:48;46.17;;;13.70;;
21554;SDS011;10938;44.794;-0.676;2023-02-19T06:51:15;27.27;;;13.20;;
21554;SDS011;10938;44.794;-0.676;2023-02-19T06:53:51;30.27;;;12.40;;
21554;SDS011;10938;44.794;-0.676;2023-02-19T06:56:30;36.70;;;13.48;;
21554;SDS011;10938;44.794;-0.676;2023-02-19T06:58:59;41.13;;;13.82;;
21554;SDS011;10938;44.794;-0.676;2023-02-19T07:01:27;50.95;;;13.60;;
21554;SDS011;10938;44.794;-0.676;2023-02-19T07:03:54;49.40;;;13.90;;
21554;SDS011;10938;44.794;-0.676;2023-02-19T07:06:20;41.53;;;12.63;;
21554;SDS011;10938;44.794;-0.676;2023-02-19T07:08:46;49.35;;;14.57;;
21554;SDS011;10938;44.794;-0.676;2023-02-19T07:11:12;36.88;;;14.27;;
21554;SDS011;10938;44.794;-0.676;2023-02-19T07:13:38;26.60;;;12.68;;
21554;SDS011;10938;44.794;-0.676;2023-02-19T07:16:05;44.20;;;14.38;;
21554;SDS011;10938;44.794;-0.676;2023-02-19T07:18:35;61.08;;;14.48;;
21554;SDS011;10938;44.794;-0.676;2023-02-19T07:21:03;40.55;;;13.63;;
21554;SDS011;10938;44.794;-0.676;2023-02-19T07:23:35;45.53;;;14.07;;
21554;SDS011;10938;44.794;-0.676;2023-02-19T07:26:01;48.83;;;14.70;;
21554;SDS011;10938;44.794;-0.676;2023-02-19T07:28:26;65.82;;;16.77;;
21554;SDS011;10938;44.794;-0.676;2023-02-19T07:30:52;66.20;;;15.27;;
21554;SDS011;10938;44.794;-0.676;2023-02-19T07:33:23;64.88;;;15.60;;
21554;SDS011;10938;44.794;-0.676;2023-02-19T07:35:49;64.45;;;15.98;;
21554;SDS011;10938;44.794;-0.676;2023-02-19T07:38:20;40.53;;;14.07;;
21554;SDS011;10938;44.794;-0.676;2023-02-19T07:40:57;31.58;;;13.75;;
21554;SDS011;10938;44.794;-0.676;2023-02-19T07:43:25;25.75;;;11.95;;
21554;SDS011;10938;44.794;-0.676;2023-02-19T07:45:52;41.53;;;13.80;;
21554;SDS011;10938;44.794;-0.676;2023-02-19T07:48:18;42.58;;;12.68;;
21554;SDS011;10938;44.794;-0.676;2023-02-19T07:50:54;59.58;;;15.45;;
21554;SDS011;10938;44.794;-0.676;2023-02-19T07:53:21;32.05;;;14.75;;
21554;SDS011;10938;44.794;-0.676;2023-02-19T07:55:48;33.92;;;14.82;;
21554;SDS011;10938;44.794;-0.676;2023-02-19T07:58:14;57.25;;;16.17;;
21554;SDS011;10938;44.794;-0.676;2023-02-19T08:00:40;28.00;;;13.70;;
21554;SDS011;10938;44.794;-0.676;2023-02-19T08:03:06;35.53;;;13.60;;
21554;SDS011;10938;44.794;-0.676;2023-02-19T08:05:32;38.45;;;13.35;;
21554;SDS011;10938;44.794;-0.676;2023-02-19T08:08:01;21.83;;;13.80;;
21554;SDS011;10938;44.794;-0.676;2023-02-19T08:10:27;20.50;;;12.55;;
21554;SDS011;10938;44.794;-0.676;2023-02-19T08:13:11;28.80;;;13.80;;
21554;SDS011;10938;44.794;-0.676;2023-02-19T08:18:28;27.05;;;13.88;;
21554;SDS011;10938;44.794;-0.676;2023-02-19T08:20:55;41.88;;;15.25;;
21554;SDS011;10938;44.794;-0.676;2023-02-19T08:23:22;39.47;;;15.38;;
21554;SDS011;10938;44.794;-0.676;2023-02-19T08:25:48;28.33;;;13.93;;
21554;SDS011;10938;44.794;-0.676;2023-02-19T08:28:14;42.80;;;13.73;;
21554;SDS011;10938;44.794;-0.676;2023-02-19T08:30:41;35.78;;;13.95;;
21554;SDS011;10938;44.794;-0.676;2023-02-19T08:33:09;27.33;;;13.10;;
21554;SDS011;10938;44.794;-0.676;2023-02-19T08:35:36;26.27;;;13.00;;
21554;SDS011;10938;44.794;-0.676;2023-02-19T08:38:02;26.52;;;12.52;;
21554;SDS011;10938;44.794;-0.676;2023-02-19T08:40:31;29.05;;;12.82;;
21554;SDS011;10938;44.794;-0.676;2023-02-19T08:43:01;29.90;;;13.25;;
21554;SDS011;10938;44.794;-0.676;2023-02-19T08:45:37;29.05;;;11.65;;
21554;SDS011;10938;44.794;-0.676;2023-02-19T08:48:05;20.58;;;11.35;;
21554;SDS011;10938;44.794;-0.676;2023-02-19T08:50:31;22.30;;;10.30;;
21554;SDS011;10938;44.794;-0.676;2023-02-19T08:52:59;15.60;;;10.23;;
21554;SDS011;10938;44.794;-0.676;2023-02-19T08:55:26;13.48;;;9.15;;
21554;SDS011;10938;44.794;-0.676;2023-02-19T08:57:51;9.80;;;8.30;;
21554;SDS011;10938;44.794;-0.676;2023-02-19T09:00:17;10.30;;;7.82;;
21554;SDS011;10938;44.794;-0.676;2023-02-19T09:02:43;9.43;;;7.78;;
21554;SDS011;10938;44.794;-0.676;2023-02-19T09:08:50;10.77;;;7.13;;
21554;SDS011;10938;44.794;-0.676;2023-02-19T09:11:16;9.45;;;7.32;;
21554;SDS011;10938;44.794;-0.676;2023-02-19T09:13:41;9.05;;;7.00;;
21554;SDS011;10938;44.794;-0.676;2023-02-19T09:16:07;9.35;;;7.40;;
21554;SDS011;10938;44.794;-0.676;2023-02-19T09:18:33;10.25;;;6.88;;
21554;SDS011;10938;44.794;-0.676;2023-02-19T09:21:00;7.80;;;6.80;;
21554;SDS011;10938;44.794;-0.676;2023-02-19T09:23:26;7.55;;;5.93;;
21554;SDS011;10938;44.794;-0.676;2023-02-19T09:25:58;8.30;;;6.07;;
21554;SDS011;10938;44.794;-0.676;2023-02-19T09:28:24;7.80;;;5.97;;
21554;SDS011;10938;44.794;-0.676;2023-02-19T09:30:50;6.75;;;5.60;;
21554;SDS011;10938;44.794;-0.676;2023-02-19T09:33:16;6.07;;;5.10;;
21554;SDS011;10938;44.794;-0.676;2023-02-19T09:35:41;6.05;;;5.43;;
21554;SDS011;10938;44.794;-0.676;2023-02-19T09:38:07;6.25;;;5.35;;
21554;SDS011;10938;44.794;-0.676;2023-02-19T09:40:35;5.63;;;4.60;;
21554;SDS011;10938;44.794;-0.676;2023-02-19T09:43:05;8.32;;;5.38;;
21554;SDS011;10938;44.794;-0.676;2023-02-19T09:45:33;5.40;;;4.90;;
21554;SDS011;10938;44.794;-0.676;2023-02-19T09:48:00;6.28;;;4.72;;
21554;SDS011;10938;44.794;-0.676;2023-02-19T09:50:27;7.10;;;4.50;;
21554;SDS011;10938;44.794;-0.676;2023-02-19T09:53:02;5.88;;;4.57;;
21554;SDS011;10938;44.794;-0.676;2023-02-19T09:55:34;5.80;;;5.00;;
21554;SDS011;10938;44.794;-0.676;2023-02-19T09:58:47;4.97;;;4.32;;
21554;SDS011;10938;44.794;-0.676;2023-02-19T10:01:02;4.60;;;4.10;;
21554;SDS011;10938;44.794;-0.676;2023-02-19T10:03:30;4.55;;;3.88;;
21554;SDS011;10938;44.794;-0.676;2023-02-19T10:06:00;4.25;;;3.70;;
21554;SDS011;10938;44.794;-0.676;2023-02-19T10:08:30;4.40;;;3.78;;
21554;SDS011;10938;44.794;-0.676;2023-02-19T10:11:00;4.95;;;3.30;;
21554;SDS011;10938;44.794;-0.676;2023-02-19T10:13:34;6.13;;;4.88;;
21554;SDS011;10938;44.794;-0.676;2023-02-19T10:16:06;4.63;;;3.78;;
21554;SDS011;10938;44.794;-0.676;2023-02-19T10:18:39;3.35;;;3.05;;
21554;SDS011;10938;44.794;-0.676;2023-02-19T10:21:07;4.82;;;3.10;;
21554;SDS011;10938;44.794;-0.676;2023-02-19T10:23:40;3.53;;;2.80;;
21554;SDS011;10938;44.794;-0.676;2023-02-19T10:26:06;3.63;;;2.95;;
21554;SDS011;10938;44.794;-0.676;2023-02-19T10:28:33;3.03;;;2.70;;
21554;SDS011;10938;44.794;-0.676;2023-02-19T10:31:00;2.47;;;2.28;;
21554;SDS011;10938;44.794;-0.676;2023-02-19T10:33:28;4.15;;;1.80;;
21554;SDS011;10938;44.794;-0.676;2023-02-19T10:35:58;2.05;;;1.70;;
21554;SDS011;10938;44.794;-0.676;2023-02-19T10:38:37;2.15;;;1.95;;
21554;SDS011;10938;44.794;-0.676;2023-02-19T10:41:05;2.78;;;1.73;;
21554;SDS011;10938;44.794;-0.676;2023-02-19T10:43:36;2.67;;;1.80;;
21554;SDS011;10938;44.794;-0.676;2023-02-19T10:46:07;3.55;;;1.63;;
21554;SDS011;10938;44.794;-0.676;2023-02-19T10:51:43;4.03;;;1.80;;
21554;SDS011;10938;44.794;-0.676;2023-02-19T11:00:00;1.85;;;1.58;;
21554;SDS011;10938;44.794;-0.676;2023-02-19T11:02:43;2.28;;;1.50;;
21554;SDS011;10938;44.794;-0.676;2023-02-19T11:07:42;6.68;;;1.70;;
21554;SDS011;10938;44.794;-0.676;2023-02-19T11:13:03;3.33;;;1.95;;
21554;SDS011;10938;44.794;-0.676;2023-02-19T11:15:30;2.67;;;1.70;;
21554;SDS011;10938;44.794;-0.676;2023-02-19T11:23:23;2.30;;;1.90;;
21554;SDS011;10938;44.794;-0.676;2023-02-19T11:25:49;5.40;;;2.17;;
21554;SDS011;10938;44.794;-0.676;2023-02-19T11:28:37;4.75;;;2.75;;
21554;SDS011;10938;44.794;-0.676;2023-02-19T11:36:40;3.63;;;2.10;;
21554;SDS011;10938;44.794;-0.676;2023-02-19T11:50:28;4.13;;;3.00;;
21554;SDS011;10938;44.794;-0.676;2023-02-19T12:02:25;4.93;;;3.20;;
21554;SDS011;10938;44.794;-0.676;2023-02-19T12:15:23;3.35;;;2.65;;
21554;SDS011;10938;44.794;-0.676;2023-02-19T12:43:22;5.00;;;3.45;;
21554;SDS011;10938;44.794;-0.676;2023-02-19T12:45:41;5.57;;;3.60;;
21554;SDS011;10938;44.794;-0.676;2023-02-19T12:48:28;4.30;;;3.33;;
21554;SDS011;10938;44.794;-0.676;2023-02-19T12:56:23;4.63;;;3.20;;
21554;SDS011;10938;44.794;-0.676;2023-02-19T12:58:57;6.18;;;4.35;;
21554;SDS011;10938;44.794;-0.676;2023-02-19T13:01:38;6.50;;;4.30;;
21554;SDS011;10938;44.794;-0.676;2023-02-19T13:04:16;4.22;;;3.83;;
21554;SDS011;10938;44.794;-0.676;2023-02-19T13:06:52;5.32;;;4.32;;
21554;SDS011;10938;44.794;-0.676;2023-02-19T13:09:37;4.70;;;4.20;;
21554;SDS011;10938;44.794;-0.676;2023-02-19T13:12:13;6.88;;;4.78;;
21554;SDS011;10938;44.794;-0.676;2023-02-19T13:14:44;4.85;;;4.20;;
21554;SDS011;10938;44.794;-0.676;2023-02-19T13:17:27;5.47;;;4.32;;
21554;SDS011;10938;44.794;-0.676;2023-02-19T13:20:32;6.57;;;4.50;;
21554;SDS011;10938;44.794;-0.676;2023-02-19T13:23:35;5.72;;;4.30;;
21554;SDS011;10938;44.794;-0.676;2023-02-19T13:37:23;5.32;;;4.70;;
21554;SDS011;10938;44.794;-0.676;2023-02-19T13:39:51;4.78;;;4.22;;
21554;SDS011;10938;44.794;-0.676;2023-02-19T13:42:30;5.32;;;4.47;;
21554;SDS011;10938;44.794;-0.676;2023-02-19T13:45:00;5.65;;;4.88;;
21554;SDS011;10938;44.794;-0.676;2023-02-19T13:50:30;5.70;;;4.68;;
21554;SDS011;10938;44.794;-0.676;2023-02-19T13:52:57;5.85;;;4.65;;
21554;SDS011;10938;44.794;-0.676;2023-02-19T14:06:03;9.15;;;6.32;;
21554;SDS011;10938;44.794;-0.676;2023-02-19T14:11:16;7.03;;;5.38;;
21554;SDS011;10938;44.794;-0.676;2023-02-19T14:14:02;6.93;;;5.60;;
21554;SDS011;10938;44.794;-0.676;2023-02-19T14:33:16;7.28;;;6.28;;
21554;SDS011;10938;44.794;-0.676;2023-02-19T14:35:46;7.00;;;5.95;;
21554;SDS011;10938;44.794;-0.676;2023-02-19T14:38:19;7.07;;;6.05;;
21554;SDS011;10938;44.794;-0.676;2023-02-19T14:40:48;9.02;;;6.30;;
21554;SDS011;10938;44.794;-0.676;2023-02-19T14:43:17;7.38;;;6.03;;
21554;SDS011;10938;44.794;-0.676;2023-02-19T14:45:49;6.22;;;5.35;;
21554;SDS011;10938;44.794;-0.676;2023-02-19T14:48:20;8.40;;;6.20;;
21554;SDS011;10938;44.794;-0.676;2023-02-19T14:50:54;6.28;;;5.50;;
21554;SDS011;10938;44.794;-0.676;2023-02-19T14:53:22;12.30;;;7.53;;
21554;SDS011;10938;44.794;-0.676;2023-02-19T14:55:49;8.93;;;6.55;;
21554;SDS011;10938;44.794;-0.676;2023-02-19T14:58:32;6.85;;;6.15;;
21554;SDS011;10938;44.794;-0.676;2023-02-19T15:00:58;6.93;;;6.15;;
21554;SDS011;10938;44.794;-0.676;2023-02-19T15:03:41;6.57;;;5.97;;
21554;SDS011;10938;44.794;-0.676;2023-02-19T15:06:13;7.53;;;6.43;;
21554;SDS011;10938;44.794;-0.676;2023-02-19T15:08:43;8.95;;;6.43;;
21554;SDS011;10938;44.794;-0.676;2023-02-19T15:11:19;7.10;;;6.40;;
21554;SDS011;10938;44.794;-0.676;2023-02-19T15:14:20;6.85;;;6.18;;
21554;SDS011;10938;44.794;-0.676;2023-02-19T15:16:43;7.38;;;5.97;;
21554;SDS011;10938;44.794;-0.676;2023-02-19T15:19:09;7.40;;;6.40;;
21554;SDS011;10938;44.794;-0.676;2023-02-19T15:21:39;7.80;;;6.95;;
21554;SDS011;10938;44.794;-0.676;2023-02-19T15:24:10;11.07;;;6.57;;
21554;SDS011;10938;44.794;-0.676;2023-02-19T15:26:40;8.48;;;6.68;;
21554;SDS011;10938;44.794;-0.676;2023-02-19T15:29:10;8.00;;;7.20;;
21554;SDS011;10938;44.794;-0.676;2023-02-19T15:31:56;10.15;;;8.15;;
21554;SDS011;10938;44.794;-0.676;2023-02-19T15:34:24;8.00;;;6.80;;
21554;SDS011;10938;44.794;-0.676;2023-02-19T15:36:54;8.52;;;7.68;;
21554;SDS011;10938;44.794;-0.676;2023-02-19T15:39:25;13.85;;;10.85;;
21554;SDS011;10938;44.794;-0.676;2023-02-19T15:42:04;10.57;;;7.30;;
21554;SDS011;10938;44.794;-0.676;2023-02-19T15:44:58;10.85;;;9.73;;
21554;SDS011;10938;44.794;-0.676;2023-02-19T15:50:24;9.07;;;6.93;;
21554;SDS011;10938;44.794;-0.676;2023-02-19T16:00:50;12.73;;;8.55;;
21554;SDS011;10938;44.794;-0.676;2023-02-19T16:03:32;11.18;;;8.80;;
21554;SDS011;10938;44.794;-0.676;2023-02-19T16:06:07;12.05;;;8.82;;
21554;SDS011;10938;44.794;-0.676;2023-02-19T16:11:24;13.80;;;11.65;;
21554;SDS011;10938;44.794;-0.676;2023-02-19T16:16:50;16.25;;;12.68;;
21554;SDS011;10938;44.794;-0.676;2023-02-19T16:22:21;22.55;;;19.25;;
21554;SDS011;10938;44.794;-0.676;2023-02-19T16:24:50;20.70;;;17.50;;
21554;SDS011;10938;44.794;-0.676;2023-02-19T16:27:39;22.50;;;17.70;;
21554;SDS011;10938;44.794;-0.676;2023-02-19T16:32:33;19.92;;;16.63;;
21554;SDS011;10938;44.794;-0.676;2023-02-19T16:34:59;20.50;;;16.77;;
21554;SDS011;10938;44.794;-0.676;2023-02-19T16:37:40;23.48;;;19.50;;
21554;SDS011;10938;44.794;-0.676;2023-02-19T16:45:15;23.65;;;18.08;;
21554;SDS011;10938;44.794;-0.676;2023-02-19T16:47:41;22.65;;;18.67;;
21554;SDS011;10938;44.794;-0.676;2023-02-19T16:50:20;19.15;;;16.80;;
21554;SDS011;10938;44.794;-0.676;2023-02-19T16:52:58;20.13;;;17.05;;
21554;SDS011;10938;44.794;-0.676;2023-02-19T16:55:26;21.65;;;17.20;;
21554;SDS011;10938;44.794;-0.676;2023-02-19T16:57:52;21.67;;;17.95;;
21554;SDS011;10938;44.794;-0.676;2023-02-19T17:00:19;19.75;;;16.67;;
21554;SDS011;10938;44.794;-0.676;2023-02-19T17:02:50;19.67;;;16.23;;
21554;SDS011;10938;44.794;-0.676;2023-02-19T17:05:18;20.38;;;15.93;;
21554;SDS011;10938;44.794;-0.676;2023-02-19T17:07:45;19.58;;;14.85;;
21554;SDS011;10938;44.794;-0.676;2023-02-19T17:10:18;17.38;;;14.43;;
21554;SDS011;10938;44.794;-0.676;2023-02-19T17:12:47;18.52;;;15.75;;
21554;SDS011;10938;44.794;-0.676;2023-02-19T17:15:13;16.77;;;13.35;;
21554;SDS011;10938;44.794;-0.676;2023-02-19T17:17:39;18.80;;;16.02;;
21554;SDS011;10938;44.794;-0.676;2023-02-19T17:20:24;22.70;;;18.75;;
21554;SDS011;10938;44.794;-0.676;2023-02-19T17:22:53;20.50;;;16.85;;
21554;SDS011;10938;44.794;-0.676;2023-02-19T17:25:20;22.63;;;18.52;;
21554;SDS011;10938;44.794;-0.676;2023-02-19T17:27:46;19.25;;;15.73;;
21554;SDS011;10938;44.794;-0.676;2023-02-19T17:30:12;35.70;;;26.20;;
21554;SDS011;10938;44.794;-0.676;2023-02-19T17:32:42;27.83;;;20.05;;
21554;SDS011;10938;44.794;-0.676;2023-02-19T17:35:08;18.67;;;16.13;;
21554;SDS011;10938;44.794;-0.676;2023-02-19T17:37:33;22.65;;;16.52;;
21554;SDS011;10938;44.794;-0.676;2023-02-19T17:39:59;22.00;;;17.23;;
21554;SDS011;10938;44.794;-0.676;2023-02-19T17:42:24;16.88;;;15.07;;
21554;SDS011;10938;44.794;-0.676;2023-02-19T17:44:49;21.45;;;17.08;;
21554;SDS011;10938;44.794;-0.676;2023-02-19T17:47:17;20.83;;;14.73;;
21554;SDS011;10938;44.794;-0.676;2023-02-19T17:49:43;15.30;;;13.70;;
21554;SDS011;10938;44.794;-0.676;2023-02-19T17:52:12;18.45;;;14.85;;
21554;SDS011;10938;44.794;-0.676;2023-02-19T17:54:41;17.08;;;12.90;;
21554;SDS011;10938;44.794;-0.676;2023-02-19T17:57:10;14.70;;;13.20;;